createdAt,value
2022-10-12T00:00:50.524Z,94.84
2022-10-12T00:03:18.542Z,95.56
2022-10-12T00:05:48.282Z,95.30
2022-10-12T00:08:16.345Z,95.32
2022-10-12T00:10:45.277Z,95.52
2022-10-12T00:13:13.215Z,95.41
2022-10-12T00:15:42.344Z,95.29
2022-10-12T00:18:10.307Z,95.31
2022-10-12T00:20:38.493Z,95.37
2022-10-12T00:23:08.587Z,95.58
2022-10-12T00:25:38.593Z,95.33
2022-10-12T00:28:07.670Z,95.42
2022-10-12T00:30:36.278Z,94.91
2022-10-12T00:33:04.266Z,95.40
2022-10-12T00:35:32.227Z,95.36
2022-10-12T00:38:00.183Z,97.46
2022-10-12T00:40:29.604Z,98.23
2022-10-12T00:42:57.581Z,97.96
2022-10-12T00:45:27.260Z,97.92
2022-10-12T00:47:58.110Z,98.02
2022-10-12T00:50:29.066Z,97.08
2022-10-12T00:53:00.356Z,97.27
2022-10-12T00:55:33.862Z,97.00
2022-10-12T00:58:02.682Z,96.89
2022-10-12T01:00:30.690Z,97.22
2022-10-12T01:02:59.538Z,98.10
2022-10-12T01:05:28.268Z,98.99
2022-10-12T01:07:56.341Z,98.65
2022-10-12T01:10:24.276Z,98.21
2022-10-12T01:12:53.903Z,97.75
2022-10-12T01:15:24.740Z,97.39
2022-10-12T01:18:00.430Z,97.21
2022-10-12T01:20:58.737Z,97.69
2022-10-12T01:23:59.234Z,97.67
2022-10-12T01:27:06.193Z,97.59
2022-10-12T01:30:06.205Z,98.10
2022-10-12T01:32:44.054Z,97.53
2022-10-12T01:35:19.706Z,98.59
2022-10-12T01:37:55.594Z,98.82
2022-10-12T01:40:30.454Z,98.24
2022-10-12T01:42:59.145Z,98.26
2022-10-12T01:45:27.224Z,97.89
2022-10-12T01:47:56.634Z,97.45
2022-10-12T01:50:32.813Z,97.44
2022-10-12T01:53:10.603Z,97.10
2022-10-12T01:55:45.170Z,97.57
2022-10-12T01:58:34.219Z,97.69
2022-10-12T02:01:14.498Z,97.70
2022-10-12T02:03:52.005Z,97.73
2022-10-12T02:06:24.233Z,97.23
2022-10-12T02:09:01.258Z,97.45
2022-10-12T02:11:29.861Z,98.15
2022-10-12T02:14:03.880Z,97.97
2022-10-12T02:16:36.608Z,98.09
2022-10-12T02:19:10.616Z,98.10
2022-10-12T02:21:41.220Z,98.47
2022-10-12T02:24:11.451Z,98.21
2022-10-12T02:26:43.297Z,98.36
2022-10-12T02:29:14.778Z,97.94
2022-10-12T02:31:49.544Z,98.55
2022-10-12T02:34:22.657Z,98.53
2022-10-12T02:36:55.974Z,98.70
2022-10-12T02:39:30.520Z,98.68
2022-10-12T02:42:02.186Z,98.42
2022-10-12T02:44:34.551Z,98.75
2022-10-12T02:47:04.650Z,98.43
2022-10-12T02:49:36.456Z,98.48
2022-10-12T02:52:06.485Z,98.75
2022-10-12T02:54:34.550Z,98.27
2022-10-12T02:57:02.627Z,98.57
2022-10-12T02:59:30.629Z,98.54
2022-10-12T03:01:58.577Z,98.80
2022-10-12T03:04:26.523Z,98.83
2022-10-12T03:06:55.892Z,98.86
2022-10-12T03:09:24.205Z,98.62
2022-10-12T03:11:52.198Z,98.69
2022-10-12T03:14:21.208Z,98.69
2022-10-12T03:16:49.240Z,98.51
2022-10-12T03:19:17.236Z,98.93
2022-10-12T03:21:45.166Z,98.80
2022-10-12T03:24:14.572Z,98.75
2022-10-12T03:26:42.538Z,98.65
2022-10-12T03:29:10.530Z,98.75
2022-10-12T03:31:38.500Z,98.74
2022-10-12T03:34:06.507Z,98.93
2022-10-12T03:36:34.587Z,99.02
2022-10-12T03:39:02.527Z,98.75
2022-10-12T03:41:31.902Z,98.62
2022-10-12T03:43:59.899Z,98.08
2022-10-12T03:46:27.916Z,97.78
2022-10-12T03:48:55.905Z,98.47
2022-10-12T03:51:23.838Z,98.55
2022-10-12T03:53:51.846Z,98.73
2022-10-12T03:56:19.812Z,98.93
2022-10-12T03:58:49.172Z,99.34
2022-10-12T04:01:17.218Z,99.10
2022-10-12T04:03:45.284Z,99.05
2022-10-12T04:06:13.259Z,98.60
2022-10-12T04:08:41.253Z,98.03
2022-10-12T04:11:09.354Z,97.89
2022-10-12T04:13:37.442Z,97.90
2022-10-12T04:16:08.255Z,98.34
2022-10-12T04:18:36.340Z,98.58
2022-10-12T04:21:07.868Z,98.54
2022-10-12T04:23:35.845Z,98.36
2022-10-12T04:26:03.977Z,98.22
2022-10-12T04:28:32.106Z,98.82
2022-10-12T04:31:00.137Z,99.31
2022-10-12T04:33:29.616Z,99.59
2022-10-12T04:35:57.647Z,99.09
2022-10-12T04:38:25.670Z,98.35
2022-10-12T04:40:53.724Z,98.57
2022-10-12T04:43:21.746Z,98.59
2022-10-12T04:45:55.872Z,98.94
2022-10-12T04:48:24.033Z,98.93
2022-10-12T04:50:54.020Z,99.09
2022-10-12T04:53:22.259Z,98.47
2022-10-12T04:55:50.197Z,98.10
2022-10-12T04:58:18.374Z,97.96
2022-10-12T05:00:47.462Z,98.45
2022-10-12T05:03:15.806Z,98.00
2022-10-12T05:05:45.838Z,98.08
2022-10-12T05:08:15.197Z,98.28
2022-10-12T05:10:43.329Z,98.39
2022-10-12T05:13:11.430Z,98.14
2022-10-12T05:15:39.525Z,98.72
2022-10-12T05:18:07.655Z,98.46
2022-10-12T05:20:35.679Z,98.11
2022-10-12T05:23:03.768Z,98.62
2022-10-12T05:25:35.281Z,98.43
2022-10-12T05:28:03.396Z,99.14
2022-10-12T05:30:31.725Z,98.62
2022-10-12T05:32:59.962Z,98.89
2022-10-12T05:35:27.962Z,99.11
2022-10-12T05:37:56.017Z,99.27
2022-10-12T05:40:24.037Z,99.11
2022-10-12T05:42:53.404Z,98.94
2022-10-12T05:45:21.539Z,99.13
2022-10-12T05:47:49.691Z,99.07
2022-10-12T05:50:17.727Z,99.22
2022-10-12T05:52:46.415Z,99.13
2022-10-12T05:55:14.859Z,99.03
2022-10-12T05:57:42.828Z,99.62
2022-10-12T06:00:13.455Z,99.68
2022-10-12T06:02:41.402Z,99.28
2022-10-12T06:05:09.917Z,99.36
2022-10-12T06:07:37.914Z,99.62
2022-10-12T06:10:07.522Z,99.40
2022-10-12T06:12:35.978Z,100.00
2022-10-12T06:15:04.395Z,100.00
2022-10-12T06:17:33.764Z,100.00
2022-10-12T06:20:01.868Z,100.00
2022-10-12T06:22:29.932Z,100.00
2022-10-12T06:24:58.045Z,100.00
2022-10-12T06:27:25.989Z,100.00
2022-10-12T06:29:53.965Z,100.00
2022-10-12T06:32:22.024Z,100.00
2022-10-12T06:34:51.407Z,100.00
2022-10-12T06:37:44.292Z,100.00
2022-10-12T06:40:08.601Z,100.00
2022-10-12T06:42:36.899Z,100.00
2022-10-12T06:45:08.029Z,100.00
2022-10-12T06:47:36.081Z,100.00
2022-10-12T06:50:06.615Z,99.54
2022-10-12T06:52:34.611Z,99.07
2022-10-12T06:55:02.783Z,98.71
2022-10-12T06:57:30.968Z,98.63
2022-10-12T06:59:58.903Z,98.74
2022-10-12T07:02:27.100Z,98.34
2022-10-12T07:04:55.197Z,98.29
2022-10-12T07:07:24.652Z,97.84
2022-10-12T07:09:53.481Z,97.98
2022-10-12T07:12:21.482Z,98.10
2022-10-12T07:14:49.455Z,97.63
2022-10-12T07:17:17.817Z,98.00
2022-10-12T07:19:45.813Z,97.87
2022-10-12T07:22:13.785Z,97.98
2022-10-12T07:24:43.312Z,97.56
2022-10-12T07:27:11.916Z,96.87
2022-10-12T07:29:40.223Z,96.33
2022-10-12T07:32:08.922Z,95.80
2022-10-12T07:34:36.900Z,95.71
2022-10-12T07:37:05.497Z,95.54
2022-10-12T07:39:33.521Z,95.36
2022-10-12T07:42:02.966Z,95.59
2022-10-12T07:44:31.741Z,95.41
2022-10-12T07:46:59.703Z,95.59
2022-10-12T07:49:27.891Z,95.57
2022-10-12T07:51:55.906Z,95.59
2022-10-12T07:54:29.119Z,96.78
2022-10-12T07:56:57.868Z,97.23
2022-10-12T07:59:27.627Z,97.23
2022-10-12T08:01:55.723Z,97.03
2022-10-12T08:04:23.969Z,97.09
2022-10-12T08:06:52.061Z,97.75
2022-10-12T08:09:20.200Z,98.49
2022-10-12T08:11:48.528Z,98.81
2022-10-12T08:14:17.805Z,99.56
2022-10-12T08:16:47.359Z,100.00
2022-10-12T08:19:16.325Z,100.00
2022-10-12T08:21:44.550Z,100.00
2022-10-12T08:24:13.764Z,100.00
2022-10-12T08:26:41.958Z,100.00
2022-10-12T08:29:11.625Z,100.00
2022-10-12T08:31:40.776Z,100.00
2022-10-12T08:34:10.936Z,100.00
2022-10-12T08:36:39.174Z,100.00
2022-10-12T08:39:08.767Z,100.00
2022-10-12T08:41:59.000Z,100.00
2022-10-12T08:44:42.805Z,100.00
2022-10-12T08:47:17.094Z,100.00
2022-10-12T08:49:50.106Z,100.00
2022-10-12T08:52:28.806Z,99.64
2022-10-12T08:55:01.176Z,99.15
2022-10-12T08:57:29.301Z,98.94
2022-10-12T08:59:57.350Z,98.43
2022-10-12T09:02:36.264Z,97.83
2022-10-12T09:05:10.299Z,97.79
2022-10-12T09:07:43.411Z,96.57
2022-10-12T09:10:27.977Z,96.38
2022-10-12T09:13:03.249Z,95.78
2022-10-12T09:15:34.376Z,95.19
2022-10-12T09:18:06.750Z,95.21
2022-10-12T09:20:46.582Z,94.66
2022-10-12T09:23:24.765Z,93.46
2022-10-12T09:25:54.136Z,93.47
2022-10-12T09:28:30.308Z,92.94
2022-10-12T09:31:16.528Z,91.96
2022-10-12T09:33:50.353Z,91.64
2022-10-12T09:36:22.788Z,92.68
2022-10-12T09:38:52.022Z,92.77
2022-10-12T09:41:23.273Z,92.31
2022-10-12T09:43:54.830Z,92.26
2022-10-12T09:46:30.309Z,92.01
2022-10-12T09:48:59.688Z,91.65
2022-10-12T09:51:30.758Z,91.28
2022-10-12T09:54:03.425Z,91.46
2022-10-12T09:56:39.890Z,90.12
2022-10-12T09:59:19.218Z,89.36
2022-10-12T10:01:59.828Z,87.33
2022-10-12T10:04:29.797Z,87.23
2022-10-12T10:07:15.295Z,85.33
2022-10-12T10:09:43.282Z,85.21
2022-10-12T10:12:22.093Z,84.39
2022-10-12T10:14:52.098Z,84.00
2022-10-12T10:17:26.356Z,82.98
2022-10-12T10:19:55.920Z,82.88
2022-10-12T10:22:26.123Z,81.71
2022-10-12T10:25:00.253Z,82.46
2022-10-12T10:27:32.217Z,82.20
2022-10-12T10:30:40.880Z,81.69
2022-10-12T10:33:17.039Z,81.30
2022-10-12T10:35:56.480Z,79.83
2022-10-12T10:38:25.994Z,80.64
2022-10-12T10:40:57.182Z,79.86
2022-10-12T10:43:29.490Z,79.26
2022-10-12T10:46:00.693Z,80.03
2022-10-12T10:48:32.190Z,79.71
2022-10-12T10:51:02.564Z,79.74
2022-10-12T10:53:43.400Z,79.57
2022-10-12T10:56:15.002Z,78.98
2022-10-12T10:58:46.513Z,78.79
2022-10-12T11:01:20.815Z,78.83
2022-10-12T11:03:56.221Z,79.31
2022-10-12T11:06:33.626Z,80.15
2022-10-12T11:09:06.144Z,80.54
2022-10-12T11:11:37.947Z,80.41
2022-10-12T11:14:13.537Z,79.95
2022-10-12T11:16:46.569Z,79.72
2022-10-12T11:19:31.515Z,79.44
2022-10-12T11:22:04.632Z,80.03
2022-10-12T11:24:40.924Z,79.63
2022-10-12T11:27:15.403Z,77.83
2022-10-12T11:29:43.496Z,78.16
2022-10-12T11:32:23.491Z,76.35
2022-10-12T11:34:56.360Z,76.43
2022-10-12T11:37:33.358Z,77.75
2022-10-12T11:40:04.638Z,77.82
2022-10-12T11:42:39.968Z,78.00
2022-10-12T11:45:21.948Z,78.26
2022-10-12T11:47:54.271Z,77.20
2022-10-12T11:50:30.737Z,76.79
2022-10-12T11:53:01.956Z,76.50
2022-10-12T11:55:43.498Z,77.27
2022-10-12T11:58:24.351Z,76.66
2022-10-12T12:01:38.330Z,75.68
2022-10-12T12:04:40.464Z,75.08
2022-10-12T12:07:07.425Z,76.02
2022-10-12T12:09:39.682Z,76.38
2022-10-12T12:12:17.303Z,74.79
2022-10-12T12:15:02.084Z,73.79
2022-10-12T12:17:32.529Z,75.46
2022-10-12T12:20:02.009Z,75.37
2022-10-12T12:22:35.380Z,74.09
2022-10-12T12:25:16.603Z,73.85
2022-10-12T12:27:49.571Z,73.89
2022-10-12T12:30:40.186Z,71.06
2022-10-12T12:33:28.715Z,72.11
2022-10-12T12:35:59.627Z,73.69
2022-10-12T12:38:33.608Z,72.93
2022-10-12T12:41:08.790Z,72.21
2022-10-12T12:44:04.039Z,72.11
2022-10-12T12:47:39.767Z,71.32
2022-10-12T12:50:00.914Z,72.12
2022-10-12T12:52:30.901Z,71.56
2022-10-12T12:55:22.761Z,71.75
2022-10-12T12:58:20.757Z,71.29
2022-10-12T13:01:03.256Z,70.13
2022-10-12T13:03:49.238Z,69.47
2022-10-12T13:07:08.652Z,69.68
2022-10-12T13:09:54.554Z,73.41
2022-10-12T13:12:39.157Z,75.41
2022-10-12T13:15:39.475Z,77.05
2022-10-12T13:18:47.157Z,78.10
2022-10-12T13:21:19.959Z,79.16
2022-10-12T13:23:50.257Z,79.11
2022-10-12T13:26:24.557Z,79.12
2022-10-12T13:28:55.216Z,80.64
2022-10-12T13:31:29.664Z,80.60
2022-10-12T13:34:11.276Z,80.27
2022-10-12T13:36:51.082Z,80.50
2022-10-12T13:39:21.925Z,81.88
2022-10-12T13:41:53.358Z,81.56
2022-10-12T13:44:24.852Z,80.87
2022-10-12T13:46:56.803Z,81.16
2022-10-12T13:49:28.370Z,81.29
2022-10-12T13:51:58.172Z,81.42
2022-10-12T13:54:28.274Z,81.48
2022-10-12T13:57:00.210Z,83.21
2022-10-12T13:59:31.017Z,82.08
2022-10-12T14:02:01.675Z,81.18
2022-10-12T14:04:33.126Z,79.96
2022-10-12T14:07:04.402Z,79.43
2022-10-12T14:09:41.814Z,80.10
2022-10-12T14:12:11.919Z,78.60
2022-10-12T14:14:42.089Z,76.77
2022-10-12T14:17:15.956Z,76.98
2022-10-12T14:19:46.880Z,76.26
2022-10-12T14:22:22.351Z,74.47
2022-10-12T14:24:50.812Z,74.13
2022-10-12T14:27:24.917Z,73.01
2022-10-12T14:29:57.137Z,73.20
2022-10-12T14:32:41.385Z,70.86
2022-10-12T14:35:30.360Z,70.87
2022-10-12T14:37:59.226Z,71.43
2022-10-12T14:40:37.259Z,71.02
2022-10-12T14:43:09.500Z,70.72
2022-10-12T14:45:37.785Z,71.10
2022-10-12T14:48:11.749Z,70.29
2022-10-12T14:50:41.277Z,70.60
2022-10-12T14:53:12.770Z,70.12
2022-10-12T14:55:41.490Z,70.65
2022-10-12T14:58:15.773Z,70.06
2022-10-12T15:00:45.143Z,69.23
2022-10-12T15:03:13.227Z,69.62
2022-10-12T15:05:42.565Z,69.87
2022-10-12T15:08:10.780Z,69.84
2022-10-12T15:10:39.093Z,68.90
2022-10-12T15:13:07.088Z,68.53
2022-10-12T15:15:40.466Z,67.47
2022-10-12T15:18:08.493Z,68.43
2022-10-12T15:20:37.284Z,67.68
2022-10-12T15:23:07.512Z,69.02
2022-10-12T15:25:45.568Z,68.87
2022-10-12T15:28:13.625Z,69.14
2022-10-12T15:31:04.258Z,69.15
2022-10-12T15:33:30.390Z,68.96
2022-10-12T15:35:58.456Z,68.02
2022-10-12T15:38:27.840Z,67.99
2022-10-12T15:40:58.442Z,67.38
2022-10-12T15:43:27.451Z,66.80
2022-10-12T15:45:56.817Z,66.77
2022-10-12T15:48:25.201Z,66.80
2022-10-12T15:50:53.200Z,66.00
2022-10-12T15:53:24.775Z,66.47
2022-10-12T15:55:55.593Z,66.76
2022-10-12T15:58:23.694Z,67.66
2022-10-12T16:00:51.943Z,68.38
2022-10-12T16:03:25.937Z,68.42
2022-10-12T16:05:54.876Z,69.59
2022-10-12T16:08:22.897Z,70.14
2022-10-12T16:10:51.419Z,70.34
2022-10-12T16:13:20.804Z,71.80
2022-10-12T16:15:48.795Z,72.22
2022-10-12T16:18:17.618Z,73.45
2022-10-12T16:20:51.111Z,73.51
2022-10-12T16:23:24.039Z,74.22
2022-10-12T16:25:52.587Z,75.07
2022-10-12T16:28:22.428Z,75.57
2022-10-12T16:30:51.058Z,76.28
2022-10-12T16:33:19.960Z,76.66
2022-10-12T16:35:48.064Z,77.18
2022-10-12T16:38:16.198Z,77.38
2022-10-12T16:40:44.290Z,77.76
2022-10-12T16:43:12.832Z,79.32
2022-10-12T16:45:42.153Z,80.04
2022-10-12T16:48:10.479Z,80.34
2022-10-12T16:50:40.905Z,81.42
2022-10-12T16:53:09.683Z,82.04
2022-10-12T16:55:40.795Z,82.25
2022-10-12T16:58:08.796Z,82.54
2022-10-12T17:00:36.929Z,82.82
2022-10-12T17:03:06.326Z,83.69
2022-10-12T17:05:34.316Z,83.77
2022-10-12T17:08:02.245Z,83.68
2022-10-12T17:10:30.227Z,83.45
2022-10-12T17:12:58.175Z,83.23
2022-10-12T17:15:26.203Z,83.81
2022-10-12T17:17:54.327Z,84.25
2022-10-12T17:20:23.725Z,84.62
2022-10-12T17:22:51.715Z,85.01
2022-10-12T17:25:19.690Z,85.20
2022-10-12T17:27:47.692Z,85.28
2022-10-12T17:30:15.625Z,85.38
2022-10-12T17:32:43.867Z,85.31
2022-10-12T17:35:11.923Z,85.55
2022-10-12T17:37:41.347Z,85.55
2022-10-12T17:40:11.754Z,86.27
2022-10-12T17:42:39.762Z,86.60
2022-10-12T17:45:08.462Z,87.06
2022-10-12T17:47:36.516Z,87.75
2022-10-12T17:50:04.849Z,87.97
2022-10-12T17:52:32.772Z,87.50
2022-10-12T17:55:02.243Z,87.58
2022-10-12T17:57:30.295Z,87.34
2022-10-12T17:59:58.380Z,87.47
2022-10-12T18:02:26.385Z,87.42
2022-10-12T18:04:54.331Z,87.58
2022-10-12T18:07:22.493Z,88.12
2022-10-12T18:09:50.655Z,88.61
2022-10-12T18:12:20.237Z,88.75
2022-10-12T18:14:48.315Z,89.20
2022-10-12T18:17:16.389Z,88.98
2022-10-12T18:19:45.848Z,89.42
2022-10-12T18:22:13.974Z,89.33
2022-10-12T18:24:42.084Z,90.46
2022-10-12T18:27:10.210Z,90.43
2022-10-12T18:29:39.632Z,90.43
2022-10-12T18:32:08.249Z,90.12
2022-10-12T18:34:36.806Z,90.24
2022-10-12T18:37:05.056Z,90.16
2022-10-12T18:39:33.067Z,90.08
2022-10-12T18:42:01.163Z,89.81
2022-10-12T18:44:29.116Z,89.85
2022-10-12T18:46:58.491Z,90.01
2022-10-12T18:49:26.464Z,89.91
2022-10-12T18:51:54.445Z,89.77
2022-10-12T18:54:22.626Z,89.73
2022-10-12T18:56:50.651Z,89.68
2022-10-12T18:59:19.428Z,89.55
2022-10-12T19:01:48.058Z,89.76
2022-10-12T19:04:17.742Z,89.67
2022-10-12T19:06:45.769Z,90.14
2022-10-12T19:09:14.506Z,90.07
2022-10-12T19:11:42.735Z,90.07
2022-10-12T19:14:14.889Z,90.11
2022-10-12T19:16:43.317Z,91.09
2022-10-12T19:19:19.629Z,95.35
2022-10-12T19:21:50.690Z,96.98
2022-10-12T19:24:19.663Z,96.85
2022-10-12T19:26:49.052Z,96.29
2022-10-12T19:29:17.139Z,95.50
2022-10-12T19:31:49.492Z,94.38
2022-10-12T19:34:19.714Z,93.54
2022-10-12T19:36:48.409Z,92.71
2022-10-12T19:39:20.346Z,92.07
2022-10-12T19:41:48.968Z,91.61
2022-10-12T19:44:17.465Z,91.83
2022-10-12T19:46:47.774Z,91.69
2022-10-12T19:49:17.116Z,92.32
2022-10-12T19:51:45.688Z,91.97
2022-10-12T19:54:16.041Z,92.32
2022-10-12T19:56:45.579Z,93.89
2022-10-12T19:59:13.822Z,95.85
2022-10-12T20:01:47.771Z,97.20
2022-10-12T20:04:16.041Z,97.31
2022-10-12T20:06:44.112Z,97.37
2022-10-12T20:09:12.321Z,96.40
2022-10-12T20:11:40.314Z,95.07
2022-10-12T20:14:09.810Z,94.02
2022-10-12T20:16:38.313Z,93.46
2022-10-12T20:19:07.274Z,92.96
2022-10-12T20:21:36.712Z,92.74
2022-10-12T20:24:05.301Z,92.87
2022-10-12T20:26:33.286Z,92.86
2022-10-12T20:29:01.937Z,93.16
2022-10-12T20:31:31.292Z,93.47
2022-10-12T20:33:59.331Z,93.36
2022-10-12T20:36:28.974Z,93.42
2022-10-12T20:38:58.316Z,93.28
2022-10-12T20:41:27.713Z,93.12
2022-10-12T20:43:57.330Z,92.79
2022-10-12T20:46:26.238Z,92.78
2022-10-12T20:48:58.914Z,92.63
2022-10-12T20:51:29.045Z,92.50
2022-10-12T20:53:59.351Z,92.27
2022-10-12T20:56:27.793Z,92.06
2022-10-12T20:58:56.249Z,91.55
2022-10-12T21:01:25.873Z,92.21
2022-10-12T21:03:55.597Z,92.18
2022-10-12T21:06:24.407Z,92.22
2022-10-12T21:08:53.558Z,92.53
2022-10-12T21:11:22.074Z,92.51
2022-10-12T21:13:50.268Z,91.99
2022-10-12T21:16:18.604Z,92.48
2022-10-12T21:18:46.606Z,92.35
2022-10-12T21:21:18.016Z,92.99
2022-10-12T21:23:53.617Z,93.06
2022-10-12T21:26:23.496Z,93.40
2022-10-12T21:28:52.150Z,93.10
2022-10-12T21:31:20.928Z,93.20
2022-10-12T21:33:48.982Z,93.22
2022-10-12T21:36:20.327Z,93.51
2022-10-12T21:38:48.950Z,95.35
2022-10-12T21:41:20.302Z,96.80
2022-10-12T21:43:49.438Z,96.25
2022-10-12T21:46:19.455Z,95.29
2022-10-12T21:48:48.000Z,94.63
2022-10-12T21:51:15.930Z,94.24
2022-10-12T21:53:45.299Z,93.97
2022-10-12T21:56:15.759Z,93.73
2022-10-12T21:58:44.370Z,93.95
2022-10-12T22:01:14.501Z,93.89
2022-10-12T22:03:43.405Z,93.84
2022-10-12T22:06:14.279Z,93.95
2022-10-12T22:08:42.639Z,94.18
2022-10-12T22:11:15.675Z,93.83
2022-10-12T22:13:43.679Z,94.30
2022-10-12T22:16:14.176Z,94.01
2022-10-12T22:18:42.844Z,94.04
2022-10-12T22:21:13.762Z,94.11
2022-10-12T22:23:41.772Z,94.32
2022-10-12T22:26:12.054Z,94.38
2022-10-12T22:28:45.277Z,93.93
2022-10-12T22:31:15.387Z,93.82
2022-10-12T22:33:43.750Z,94.31
2022-10-12T22:36:13.289Z,94.52
2022-10-12T22:38:41.325Z,94.56
2022-10-12T22:41:13.982Z,94.63
2022-10-12T22:43:49.802Z,94.52
2022-10-12T22:46:18.871Z,94.57
2022-10-12T22:48:46.899Z,94.35
2022-10-12T22:51:17.821Z,95.06
2022-10-12T22:53:45.837Z,94.79
2022-10-12T22:56:16.970Z,94.72
2022-10-12T22:58:45.121Z,94.91
2022-10-12T23:01:15.829Z,94.89
2022-10-12T23:03:43.953Z,94.52
2022-10-12T23:06:13.312Z,94.07
2022-10-12T23:08:41.777Z,94.66
2022-10-12T23:11:12.402Z,95.02
2022-10-12T23:13:41.683Z,94.94
2022-10-12T23:16:11.811Z,95.42
2022-10-12T23:18:41.904Z,95.53
2022-10-12T23:21:12.462Z,95.25
2022-10-12T23:23:41.506Z,95.48
2022-10-12T23:26:12.312Z,96.63
2022-10-12T23:28:40.622Z,96.51
2022-10-12T23:31:18.510Z,95.54
2022-10-12T23:33:48.402Z,95.43
2022-10-12T23:36:18.130Z,95.42
2022-10-12T23:38:46.817Z,95.21
2022-10-12T23:41:15.156Z,95.08
2022-10-12T23:43:43.189Z,95.32
2022-10-12T23:46:13.181Z,95.32
2022-10-12T23:48:41.439Z,94.99
2022-10-12T23:51:11.374Z,94.66
2022-10-12T23:53:39.638Z,94.43
2022-10-12T23:56:08.414Z,94.92
2022-10-12T23:58:36.955Z,95.10
